sensor_id;sensor_type;location;lat;lon;timestamp;P1;durP1;ratioP1;P2;durP2;ratioP2
45466;SDS011;31212;49.734;8.490;2022-08-01T00:01:22;1.08;;;0.80;;
45466;SDS011;31212;49.734;8.490;2022-08-01T00:03:48;1.42;;;0.80;;
45466;SDS011;31212;49.734;8.490;2022-08-01T00:06:16;1.63;;;0.70;;
45466;SDS011;31212;49.734;8.490;2022-08-01T00:08:43;1.25;;;0.75;;
45466;SDS011;31212;49.734;8.490;2022-08-01T00:11:10;0.68;;;0.55;;
45466;SDS011;31212;49.734;8.490;2022-08-01T00:13:36;0.82;;;0.60;;
45466;SDS011;31212;49.734;8.490;2022-08-01T04:15:56;0.45;;;0.45;;
45466;SDS011;31212;49.734;8.490;2022-08-01T04:30:28;0.65;;;0.65;;
45466;SDS011;31212;49.734;8.490;2022-08-01T04:32:57;1.05;;;0.60;;
45466;SDS011;31212;49.734;8.490;2022-08-01T04:35:26;1.85;;;0.75;;
45466;SDS011;31212;49.734;8.490;2022-08-01T04:37:54;1.15;;;0.90;;
45466;SDS011;31212;49.734;8.490;2022-08-01T04:40:22;0.52;;;0.40;;
45466;SDS011;31212;49.734;8.490;2022-08-01T04:42:51;0.30;;;0.30;;
45466;SDS011;31212;49.734;8.490;2022-08-01T04:45:17;0.35;;;0.35;;
45466;SDS011;31212;49.734;8.490;2022-08-01T04:47:46;0.90;;;0.63;;
45466;SDS011;31212;49.734;8.490;2022-08-01T04:50:13;0.73;;;0.50;;
45466;SDS011;31212;49.734;8.490;2022-08-01T04:52:39;1.15;;;0.40;;
45466;SDS011;31212;49.734;8.490;2022-08-01T04:55:07;0.75;;;0.40;;
45466;SDS011;31212;49.734;8.490;2022-08-01T04:57:35;0.95;;;0.63;;
45466;SDS011;31212;49.734;8.490;2022-08-01T05:00:04;3.20;;;0.55;;
45466;SDS011;31212;49.734;8.490;2022-08-01T05:02:31;1.00;;;0.60;;
45466;SDS011;31212;49.734;8.490;2022-08-01T05:05:00;0.73;;;0.70;;
45466;SDS011;31212;49.734;8.490;2022-08-01T05:07:26;0.80;;;0.77;;
45466;SDS011;31212;49.734;8.490;2022-08-01T05:09:53;2.22;;;0.70;;
45466;SDS011;31212;49.734;8.490;2022-08-01T05:12:20;0.70;;;0.70;;
45466;SDS011;31212;49.734;8.490;2022-08-01T05:14:46;0.77;;;0.50;;
45466;SDS011;31212;49.734;8.490;2022-08-01T05:17:13;2.70;;;0.90;;
45466;SDS011;31212;49.734;8.490;2022-08-01T05:19:39;0.77;;;0.75;;
45466;SDS011;31212;49.734;8.490;2022-08-01T05:22:09;2.78;;;0.60;;
45466;SDS011;31212;49.734;8.490;2022-08-01T05:24:36;1.02;;;0.60;;
45466;SDS011;31212;49.734;8.490;2022-08-01T05:27:04;0.43;;;0.43;;
45466;SDS011;31212;49.734;8.490;2022-08-01T05:29:31;1.30;;;0.57;;
45466;SDS011;31212;49.734;8.490;2022-08-01T05:31:58;1.27;;;0.55;;
45466;SDS011;31212;49.734;8.490;2022-08-01T05:34:24;2.03;;;0.50;;
45466;SDS011;31212;49.734;8.490;2022-08-01T05:36:51;0.90;;;0.80;;
45466;SDS011;31212;49.734;8.490;2022-08-01T05:39:19;1.50;;;0.88;;
45466;SDS011;31212;49.734;8.490;2022-08-01T05:41:46;0.30;;;0.30;;
45466;SDS011;31212;49.734;8.490;2022-08-01T05:44:12;0.50;;;0.50;;
45466;SDS011;31212;49.734;8.490;2022-08-01T05:46:39;3.22;;;0.55;;
45466;SDS011;31212;49.734;8.490;2022-08-01T05:49:05;0.65;;;0.32;;
45466;SDS011;31212;49.734;8.490;2022-08-01T05:51:32;0.90;;;0.65;;
45466;SDS011;31212;49.734;8.490;2022-08-01T05:53:59;1.05;;;0.70;;
45466;SDS011;31212;49.734;8.490;2022-08-01T05:56:27;3.83;;;0.60;;
45466;SDS011;31212;49.734;8.490;2022-08-01T05:58:53;3.10;;;0.55;;
45466;SDS011;31212;49.734;8.490;2022-08-01T06:01:20;1.42;;;0.60;;
45466;SDS011;31212;49.734;8.490;2022-08-01T06:03:46;0.50;;;0.50;;
45466;SDS011;31212;49.734;8.490;2022-08-01T06:06:13;0.47;;;0.47;;
45466;SDS011;31212;49.734;8.490;2022-08-01T06:08:40;2.72;;;0.47;;
45466;SDS011;31212;49.734;8.490;2022-08-01T06:11:06;0.75;;;0.60;;
45466;SDS011;31212;49.734;8.490;2022-08-01T06:13:35;0.45;;;0.45;;
45466;SDS011;31212;49.734;8.490;2022-08-01T06:16:01;1.08;;;0.65;;
45466;SDS011;31212;49.734;8.490;2022-08-01T06:18:27;1.55;;;0.50;;
45466;SDS011;31212;49.734;8.490;2022-08-01T06:20:54;0.50;;;0.50;;
45466;SDS011;31212;49.734;8.490;2022-08-01T06:23:20;1.02;;;0.63;;
45466;SDS011;31212;49.734;8.490;2022-08-01T06:25:47;0.50;;;0.50;;
45466;SDS011;31212;49.734;8.490;2022-08-01T06:28:13;0.77;;;0.63;;
45466;SDS011;31212;49.734;8.490;2022-08-01T06:30:41;0.82;;;0.50;;
45466;SDS011;31212;49.734;8.490;2022-08-01T06:33:08;0.63;;;0.52;;
45466;SDS011;31212;49.734;8.490;2022-08-01T06:35:35;0.30;;;0.30;;
45466;SDS011;31212;49.734;8.490;2022-08-01T06:38:01;0.47;;;0.43;;
45466;SDS011;31212;49.734;8.490;2022-08-01T06:40:28;1.70;;;0.70;;
45466;SDS011;31212;49.734;8.490;2022-08-01T06:42:55;0.45;;;0.30;;
45466;SDS011;31212;49.734;8.490;2022-08-01T06:45:21;0.38;;;0.38;;
45466;SDS011;31212;49.734;8.490;2022-08-01T06:47:51;0.85;;;0.32;;
45466;SDS011;31212;49.734;8.490;2022-08-01T06:50:17;0.55;;;0.40;;
45466;SDS011;31212;49.734;8.490;2022-08-01T06:52:44;0.30;;;0.30;;
45466;SDS011;31212;49.734;8.490;2022-08-01T06:55:11;0.55;;;0.45;;
45466;SDS011;31212;49.734;8.490;2022-08-01T06:57:44;1.15;;;0.40;;
45466;SDS011;31212;49.734;8.490;2022-08-01T07:00:11;0.85;;;0.60;;
45466;SDS011;31212;49.734;8.490;2022-08-01T07:02:39;0.98;;;0.70;;
45466;SDS011;31212;49.734;8.490;2022-08-01T07:05:07;0.98;;;0.50;;
45466;SDS011;31212;49.734;8.490;2022-08-01T07:07:34;1.70;;;0.55;;
45466;SDS011;31212;49.734;8.490;2022-08-01T07:10:01;0.40;;;0.40;;
45466;SDS011;31212;49.734;8.490;2022-08-01T07:12:28;0.60;;;0.60;;
45466;SDS011;31212;49.734;8.490;2022-08-01T07:14:54;0.55;;;0.55;;
45466;SDS011;31212;49.734;8.490;2022-08-01T07:17:21;1.23;;;0.70;;
45466;SDS011;31212;49.734;8.490;2022-08-01T07:19:47;0.50;;;0.50;;
45466;SDS011;31212;49.734;8.490;2022-08-01T07:22:15;0.40;;;0.40;;
45466;SDS011;31212;49.734;8.490;2022-08-01T07:24:42;2.15;;;0.50;;
45466;SDS011;31212;49.734;8.490;2022-08-01T07:27:08;1.63;;;0.60;;
45466;SDS011;31212;49.734;8.490;2022-08-01T07:29:35;1.50;;;0.70;;
45466;SDS011;31212;49.734;8.490;2022-08-01T07:32:01;0.40;;;0.40;;
45466;SDS011;31212;49.734;8.490;2022-08-01T07:34:28;0.80;;;0.65;;
45466;SDS011;31212;49.734;8.490;2022-08-01T07:36:54;1.10;;;0.80;;
45466;SDS011;31212;49.734;8.490;2022-08-01T07:39:22;1.05;;;0.50;;
45466;SDS011;31212;49.734;8.490;2022-08-01T07:41:49;0.60;;;0.60;;
45466;SDS011;31212;49.734;8.490;2022-08-01T07:44:15;0.80;;;0.75;;
45466;SDS011;31212;49.734;8.490;2022-08-01T07:46:41;0.30;;;0.30;;
45466;SDS011;31212;49.734;8.490;2022-08-01T07:49:08;0.52;;;0.52;;
45466;SDS011;31212;49.734;8.490;2022-08-01T07:51:34;0.30;;;0.30;;
45466;SDS011;31212;49.734;8.490;2022-08-01T07:54:01;0.43;;;0.40;;
45466;SDS011;31212;49.734;8.490;2022-08-01T07:56:29;1.05;;;0.50;;
45466;SDS011;31212;49.734;8.490;2022-08-01T07:58:55;1.02;;;0.90;;
45466;SDS011;31212;49.734;8.490;2022-08-01T08:01:21;1.05;;;0.57;;
45466;SDS011;31212;49.734;8.490;2022-08-01T08:03:48;0.60;;;0.50;;
45466;SDS011;31212;49.734;8.490;2022-08-01T08:06:14;0.82;;;0.70;;
45466;SDS011;31212;49.734;8.490;2022-08-01T08:08:41;0.85;;;0.60;;
45466;SDS011;31212;49.734;8.490;2022-08-01T08:11:07;0.68;;;0.60;;
45466;SDS011;31212;49.734;8.490;2022-08-01T08:13:35;0.50;;;0.50;;
45466;SDS011;31212;49.734;8.490;2022-08-01T08:16:02;0.43;;;0.43;;
45466;SDS011;31212;49.734;8.490;2022-08-01T08:18:28;0.73;;;0.60;;
45466;SDS011;31212;49.734;8.490;2022-08-01T08:20:55;0.75;;;0.65;;
45466;SDS011;31212;49.734;8.490;2022-08-01T08:23:21;0.68;;;0.60;;
45466;SDS011;31212;49.734;8.490;2022-08-01T08:26:06;1.08;;;0.75;;
45466;SDS011;31212;49.734;8.490;2022-08-01T08:28:32;0.65;;;0.60;;
45466;SDS011;31212;49.734;8.490;2022-08-01T08:31:00;0.50;;;0.50;;
45466;SDS011;31212;49.734;8.490;2022-08-01T08:33:26;0.70;;;0.55;;
45466;SDS011;31212;49.734;8.490;2022-08-01T08:35:53;0.63;;;0.52;;
45466;SDS011;31212;49.734;8.490;2022-08-01T08:38:20;0.60;;;0.60;;
45466;SDS011;31212;49.734;8.490;2022-08-01T08:40:47;0.90;;;0.68;;
45466;SDS011;31212;49.734;8.490;2022-08-01T08:43:14;0.55;;;0.55;;
45466;SDS011;31212;49.734;8.490;2022-08-01T08:45:41;0.93;;;0.80;;
45466;SDS011;31212;49.734;8.490;2022-08-01T08:48:11;1.00;;;0.70;;
45466;SDS011;31212;49.734;8.490;2022-08-01T08:50:39;0.73;;;0.73;;
45466;SDS011;31212;49.734;8.490;2022-08-01T08:53:07;0.90;;;0.82;;
45466;SDS011;31212;49.734;8.490;2022-08-01T08:55:36;0.57;;;0.50;;
45466;SDS011;31212;49.734;8.490;2022-08-01T08:58:03;0.70;;;0.70;;
45466;SDS011;31212;49.734;8.490;2022-08-01T09:00:31;1.00;;;0.63;;
45466;SDS011;31212;49.734;8.490;2022-08-01T09:02:58;0.85;;;0.60;;
45466;SDS011;31212;49.734;8.490;2022-08-01T09:05:25;0.95;;;0.88;;
45466;SDS011;31212;49.734;8.490;2022-08-01T09:07:52;1.60;;;0.75;;
45466;SDS011;31212;49.734;8.490;2022-08-01T09:10:19;1.20;;;0.60;;
45466;SDS011;31212;49.734;8.490;2022-08-01T09:13:01;1.02;;;0.82;;
45466;SDS011;31212;49.734;8.490;2022-08-01T09:15:37;1.13;;;0.80;;
45466;SDS011;31212;49.734;8.490;2022-08-01T09:18:04;2.15;;;0.75;;
45466;SDS011;31212;49.734;8.490;2022-08-01T09:20:32;0.80;;;0.70;;
45466;SDS011;31212;49.734;8.490;2022-08-01T09:23:00;1.83;;;1.08;;
45466;SDS011;31212;49.734;8.490;2022-08-01T09:25:27;1.55;;;0.65;;
45466;SDS011;31212;49.734;8.490;2022-08-01T09:28:02;0.65;;;0.65;;
45466;SDS011;31212;49.734;8.490;2022-08-01T09:30:36;0.65;;;0.65;;
45466;SDS011;31212;49.734;8.490;2022-08-01T09:33:04;1.00;;;0.70;;
45466;SDS011;31212;49.734;8.490;2022-08-01T09:35:33;1.73;;;0.93;;
45466;SDS011;31212;49.734;8.490;2022-08-01T09:38:11;0.98;;;0.73;;
45466;SDS011;31212;49.734;8.490;2022-08-01T09:40:46;1.60;;;0.90;;
45466;SDS011;31212;49.734;8.490;2022-08-01T09:43:13;2.58;;;0.80;;
45466;SDS011;31212;49.734;8.490;2022-08-01T09:45:40;0.68;;;0.68;;
45466;SDS011;31212;49.734;8.490;2022-08-01T09:48:06;1.35;;;1.10;;
45466;SDS011;31212;49.734;8.490;2022-08-01T09:50:42;0.85;;;0.80;;
45466;SDS011;31212;49.734;8.490;2022-08-01T09:53:10;0.95;;;0.70;;
45466;SDS011;31212;49.734;8.490;2022-08-01T09:55:37;1.67;;;0.80;;
45466;SDS011;31212;49.734;8.490;2022-08-01T09:58:03;2.50;;;1.33;;
45466;SDS011;31212;49.734;8.490;2022-08-01T10:00:30;1.30;;;0.95;;
45466;SDS011;31212;49.734;8.490;2022-08-01T10:02:57;1.92;;;0.80;;
45466;SDS011;31212;49.734;8.490;2022-08-01T10:05:31;0.95;;;0.90;;
45466;SDS011;31212;49.734;8.490;2022-08-01T10:08:01;1.40;;;1.02;;
45466;SDS011;31212;49.734;8.490;2022-08-01T10:10:30;1.58;;;1.38;;
45466;SDS011;31212;49.734;8.490;2022-08-01T10:12:58;1.33;;;0.85;;
45466;SDS011;31212;49.734;8.490;2022-08-01T10:15:26;3.50;;;0.82;;
45466;SDS011;31212;49.734;8.490;2022-08-01T10:17:53;1.23;;;1.10;;
45466;SDS011;31212;49.734;8.490;2022-08-01T10:20:22;1.20;;;1.10;;
45466;SDS011;31212;49.734;8.490;2022-08-01T10:22:51;0.70;;;0.70;;
45466;SDS011;31212;49.734;8.490;2022-08-01T10:25:21;1.02;;;0.93;;
45466;SDS011;31212;49.734;8.490;2022-08-01T10:27:48;0.95;;;0.82;;
45466;SDS011;31212;49.734;8.490;2022-08-01T10:30:16;0.85;;;0.75;;
45466;SDS011;31212;49.734;8.490;2022-08-01T10:32:43;0.65;;;0.65;;
45466;SDS011;31212;49.734;8.490;2022-08-01T10:35:11;1.10;;;0.80;;
45466;SDS011;31212;49.734;8.490;2022-08-01T10:37:42;0.80;;;0.80;;
45466;SDS011;31212;49.734;8.490;2022-08-01T10:40:11;1.13;;;0.90;;
45466;SDS011;31212;49.734;8.490;2022-08-01T10:42:40;2.03;;;0.70;;
45466;SDS011;31212;49.734;8.490;2022-08-01T10:45:09;1.70;;;1.02;;
45466;SDS011;31212;49.734;8.490;2022-08-01T10:47:38;0.65;;;0.65;;
45466;SDS011;31212;49.734;8.490;2022-08-01T10:50:11;0.98;;;0.88;;
45466;SDS011;31212;49.734;8.490;2022-08-01T10:52:42;1.00;;;0.80;;
45466;SDS011;31212;49.734;8.490;2022-08-01T10:55:48;2.15;;;0.90;;
45466;SDS011;31212;49.734;8.490;2022-08-01T10:58:24;1.23;;;0.80;;
45466;SDS011;31212;49.734;8.490;2022-08-01T11:03:42;1.08;;;0.85;;
45466;SDS011;31212;49.734;8.490;2022-08-01T11:06:15;1.70;;;0.77;;
45466;SDS011;31212;49.734;8.490;2022-08-01T11:08:43;1.17;;;0.85;;
45466;SDS011;31212;49.734;8.490;2022-08-01T11:11:18;1.90;;;0.75;;
45466;SDS011;31212;49.734;8.490;2022-08-01T11:14:02;0.57;;;0.55;;
45466;SDS011;31212;49.734;8.490;2022-08-01T11:16:35;1.40;;;0.80;;
45466;SDS011;31212;49.734;8.490;2022-08-01T11:19:04;0.82;;;0.60;;
45466;SDS011;31212;49.734;8.490;2022-08-01T11:27:23;0.90;;;0.60;;
45466;SDS011;31212;49.734;8.490;2022-08-01T11:32:48;0.40;;;0.40;;
45466;SDS011;31212;49.734;8.490;2022-08-01T11:35:17;0.43;;;0.32;;
45466;SDS011;31212;49.734;8.490;2022-08-01T11:37:45;0.45;;;0.45;;
45466;SDS011;31212;49.734;8.490;2022-08-01T11:40:16;0.75;;;0.60;;
45466;SDS011;31212;49.734;8.490;2022-08-01T11:42:43;0.52;;;0.52;;
45466;SDS011;31212;49.734;8.490;2022-08-01T11:45:10;0.50;;;0.50;;
45466;SDS011;31212;49.734;8.490;2022-08-01T11:47:42;0.55;;;0.55;;
45466;SDS011;31212;49.734;8.490;2022-08-01T11:53:01;0.43;;;0.40;;
45466;SDS011;31212;49.734;8.490;2022-08-01T11:55:29;0.43;;;0.43;;
45466;SDS011;31212;49.734;8.490;2022-08-01T11:58:00;1.02;;;0.80;;
45466;SDS011;31212;49.734;8.490;2022-08-01T12:02:57;0.50;;;0.50;;
45466;SDS011;31212;49.734;8.490;2022-08-01T12:05:25;0.50;;;0.50;;
45466;SDS011;31212;49.734;8.490;2022-08-01T12:07:55;1.45;;;0.50;;
45466;SDS011;31212;49.734;8.490;2022-08-01T12:10:22;0.68;;;0.60;;
45466;SDS011;31212;49.734;8.490;2022-08-01T12:12:51;1.58;;;0.55;;
45466;SDS011;31212;49.734;8.490;2022-08-01T12:15:19;0.88;;;0.70;;
45466;SDS011;31212;49.734;8.490;2022-08-01T12:17:47;0.73;;;0.45;;
45466;SDS011;31212;49.734;8.490;2022-08-01T12:20:16;0.73;;;0.60;;
45466;SDS011;31212;49.734;8.490;2022-08-01T12:22:46;0.52;;;0.32;;
45466;SDS011;31212;49.734;8.490;2022-08-01T12:25:14;0.98;;;0.70;;
45466;SDS011;31212;49.734;8.490;2022-08-01T12:27:42;0.82;;;0.60;;
45466;SDS011;31212;49.734;8.490;2022-08-01T12:30:11;0.40;;;0.40;;
45466;SDS011;31212;49.734;8.490;2022-08-01T12:32:39;0.77;;;0.60;;
45466;SDS011;31212;49.734;8.490;2022-08-01T12:35:08;6.30;;;0.80;;
45466;SDS011;31212;49.734;8.490;2022-08-01T12:37:36;0.85;;;0.65;;
45466;SDS011;31212;49.734;8.490;2022-08-01T12:40:15;0.63;;;0.50;;
45466;SDS011;31212;49.734;8.490;2022-08-01T12:42:44;0.55;;;0.55;;
45466;SDS011;31212;49.734;8.490;2022-08-01T12:45:14;0.63;;;0.60;;
45466;SDS011;31212;49.734;8.490;2022-08-01T12:47:42;0.43;;;0.43;;
45466;SDS011;31212;49.734;8.490;2022-08-01T12:50:10;0.65;;;0.60;;
45466;SDS011;31212;49.734;8.490;2022-08-01T12:52:38;0.50;;;0.47;;
45466;SDS011;31212;49.734;8.490;2022-08-01T12:55:07;0.50;;;0.50;;
45466;SDS011;31212;49.734;8.490;2022-08-01T12:57:37;0.95;;;0.60;;
45466;SDS011;31212;49.734;8.490;2022-08-01T13:00:07;0.50;;;0.50;;
45466;SDS011;31212;49.734;8.490;2022-08-01T13:02:36;0.57;;;0.57;;
45466;SDS011;31212;49.734;8.490;2022-08-01T13:05:05;0.47;;;0.47;;
45466;SDS011;31212;49.734;8.490;2022-08-01T13:07:37;0.68;;;0.68;;
45466;SDS011;31212;49.734;8.490;2022-08-01T13:10:05;3.30;;;0.70;;
45466;SDS011;31212;49.734;8.490;2022-08-01T13:12:32;2.08;;;0.45;;
45466;SDS011;31212;49.734;8.490;2022-08-01T13:15:12;0.70;;;0.60;;
45466;SDS011;31212;49.734;8.490;2022-08-01T13:17:46;0.50;;;0.50;;
45466;SDS011;31212;49.734;8.490;2022-08-01T13:20:23;1.05;;;0.80;;
45466;SDS011;31212;49.734;8.490;2022-08-01T13:22:51;0.80;;;0.57;;
45466;SDS011;31212;49.734;8.490;2022-08-01T13:25:17;0.43;;;0.40;;
45466;SDS011;31212;49.734;8.490;2022-08-01T13:27:45;0.40;;;0.40;;
45466;SDS011;31212;49.734;8.490;2022-08-01T13:30:13;0.60;;;0.50;;
45466;SDS011;31212;49.734;8.490;2022-08-01T13:32:41;0.40;;;0.40;;
45466;SDS011;31212;49.734;8.490;2022-08-01T13:35:09;0.60;;;0.50;;
45466;SDS011;31212;49.734;8.490;2022-08-01T13:37:38;0.70;;;0.47;;
45466;SDS011;31212;49.734;8.490;2022-08-01T13:40:07;0.90;;;0.60;;
45466;SDS011;31212;49.734;8.490;2022-08-01T13:42:34;0.90;;;0.75;;
45466;SDS011;31212;49.734;8.490;2022-08-01T13:45:02;0.65;;;0.60;;
45466;SDS011;31212;49.734;8.490;2022-08-01T13:47:31;1.58;;;0.60;;
45466;SDS011;31212;49.734;8.490;2022-08-01T13:49:58;0.77;;;0.50;;
45466;SDS011;31212;49.734;8.490;2022-08-01T13:52:25;1.08;;;0.60;;
45466;SDS011;31212;49.734;8.490;2022-08-01T13:54:52;0.88;;;0.63;;
45466;SDS011;31212;49.734;8.490;2022-08-01T13:57:18;0.47;;;0.47;;
45466;SDS011;31212;49.734;8.490;2022-08-01T13:59:45;0.43;;;0.43;;
45466;SDS011;31212;49.734;8.490;2022-08-01T14:02:12;0.85;;;0.40;;
45466;SDS011;31212;49.734;8.490;2022-08-01T14:04:39;1.20;;;0.75;;
45466;SDS011;31212;49.734;8.490;2022-08-01T14:07:07;0.57;;;0.50;;
45466;SDS011;31212;49.734;8.490;2022-08-01T14:09:33;0.70;;;0.60;;
45466;SDS011;31212;49.734;8.490;2022-08-01T14:12:00;1.33;;;1.05;;
45466;SDS011;31212;49.734;8.490;2022-08-01T14:14:26;0.63;;;0.40;;
45466;SDS011;31212;49.734;8.490;2022-08-01T14:16:53;0.50;;;0.50;;
45466;SDS011;31212;49.734;8.490;2022-08-01T14:19:19;0.98;;;0.75;;
45466;SDS011;31212;49.734;8.490;2022-08-01T14:21:47;0.50;;;0.47;;
45466;SDS011;31212;49.734;8.490;2022-08-01T14:24:14;0.45;;;0.45;;
45466;SDS011;31212;49.734;8.490;2022-08-01T14:26:40;0.60;;;0.43;;
45466;SDS011;31212;49.734;8.490;2022-08-01T14:29:06;0.40;;;0.40;;
45466;SDS011;31212;49.734;8.490;2022-08-01T14:31:33;0.30;;;0.30;;
45466;SDS011;31212;49.734;8.490;2022-08-01T14:34:00;2.20;;;0.50;;
45466;SDS011;31212;49.734;8.490;2022-08-01T14:36:26;0.65;;;0.50;;
45466;SDS011;31212;49.734;8.490;2022-08-01T14:38:54;1.23;;;0.50;;
45466;SDS011;31212;49.734;8.490;2022-08-01T14:41:20;1.65;;;0.50;;
45466;SDS011;31212;49.734;8.490;2022-08-01T14:43:47;0.65;;;0.30;;
45466;SDS011;31212;49.734;8.490;2022-08-01T14:46:13;0.30;;;0.30;;
45466;SDS011;31212;49.734;8.490;2022-08-01T14:48:40;0.52;;;0.38;;
45466;SDS011;31212;49.734;8.490;2022-08-01T14:51:07;0.63;;;0.40;;
45466;SDS011;31212;49.734;8.490;2022-08-01T14:53:33;1.75;;;0.30;;
45466;SDS011;31212;49.734;8.490;2022-08-01T14:56:02;0.50;;;0.38;;
45466;SDS011;31212;49.734;8.490;2022-08-01T14:58:29;0.38;;;0.38;;
45466;SDS011;31212;49.734;8.490;2022-08-01T15:00:56;0.60;;;0.60;;
45466;SDS011;31212;49.734;8.490;2022-08-01T15:03:22;0.88;;;0.47;;
45466;SDS011;31212;49.734;8.490;2022-08-01T15:05:49;0.20;;;0.20;;
45466;SDS011;31212;49.734;8.490;2022-08-01T15:08:15;0.75;;;0.47;;
45466;SDS011;31212;49.734;8.490;2022-08-01T15:10:42;0.57;;;0.32;;
45466;SDS011;31212;49.734;8.490;2022-08-01T15:13:10;0.43;;;0.35;;
45466;SDS011;31212;49.734;8.490;2022-08-01T15:15:36;0.30;;;0.30;;
45466;SDS011;31212;49.734;8.490;2022-08-01T15:18:03;0.40;;;0.40;;
45466;SDS011;31212;49.734;8.490;2022-08-01T15:20:29;0.40;;;0.30;;
45466;SDS011;31212;49.734;8.490;2022-08-01T15:22:57;0.30;;;0.30;;
45466;SDS011;31212;49.734;8.490;2022-08-01T15:25:24;0.65;;;0.40;;
45466;SDS011;31212;49.734;8.490;2022-08-01T15:27:50;0.70;;;0.60;;
45466;SDS011;31212;49.734;8.490;2022-08-01T15:30:18;0.82;;;0.70;;
45466;SDS011;31212;49.734;8.490;2022-08-01T15:32:45;0.75;;;0.60;;
45466;SDS011;31212;49.734;8.490;2022-08-01T15:35:11;0.30;;;0.30;;
45466;SDS011;31212;49.734;8.490;2022-08-01T15:37:38;0.77;;;0.55;;
45466;SDS011;31212;49.734;8.490;2022-08-01T15:40:04;0.55;;;0.55;;
45466;SDS011;31212;49.734;8.490;2022-08-01T15:42:31;2.35;;;0.45;;
45466;SDS011;31212;49.734;8.490;2022-08-01T15:44:58;1.92;;;0.57;;
45466;SDS011;31212;49.734;8.490;2022-08-01T15:47:25;1.10;;;0.65;;
45466;SDS011;31212;49.734;8.490;2022-08-01T15:49:52;0.52;;;0.50;;
45466;SDS011;31212;49.734;8.490;2022-08-01T15:52:20;0.57;;;0.40;;
45466;SDS011;31212;49.734;8.490;2022-08-01T15:54:47;0.52;;;0.52;;
45466;SDS011;31212;49.734;8.490;2022-08-01T15:57:13;4.18;;;0.50;;
45466;SDS011;31212;49.734;8.490;2022-08-01T15:59:40;0.57;;;0.47;;
45466;SDS011;31212;49.734;8.490;2022-08-01T16:02:06;0.30;;;0.30;;
45466;SDS011;31212;49.734;8.490;2022-08-01T16:04:34;1.17;;;0.75;;
45466;SDS011;31212;49.734;8.490;2022-08-01T16:07:00;0.38;;;0.38;;
45466;SDS011;31212;49.734;8.490;2022-08-01T16:09:27;0.32;;;0.30;;
45466;SDS011;31212;49.734;8.490;2022-08-01T16:11:53;1.13;;;0.68;;
45466;SDS011;31212;49.734;8.490;2022-08-01T16:14:20;0.55;;;0.40;;
45466;SDS011;31212;49.734;8.490;2022-08-01T16:16:46;0.93;;;0.45;;
45466;SDS011;31212;49.734;8.490;2022-08-01T16:19:13;0.32;;;0.32;;
45466;SDS011;31212;49.734;8.490;2022-08-01T16:21:42;1.58;;;0.70;;
45466;SDS011;31212;49.734;8.490;2022-08-01T16:24:08;4.63;;;1.00;;
45466;SDS011;31212;49.734;8.490;2022-08-01T16:26:34;4.30;;;0.57;;
45466;SDS011;31212;49.734;8.490;2022-08-01T16:29:01;0.85;;;0.60;;
45466;SDS011;31212;49.734;8.490;2022-08-01T16:31:28;3.13;;;0.60;;
45466;SDS011;31212;49.734;8.490;2022-08-01T16:33:54;0.30;;;0.30;;
45466;SDS011;31212;49.734;8.490;2022-08-01T16:36:21;0.60;;;0.57;;
45466;SDS011;31212;49.734;8.490;2022-08-01T16:38:49;0.70;;;0.60;;
45466;SDS011;31212;49.734;8.490;2022-08-01T16:41:15;2.28;;;0.98;;
45466;SDS011;31212;49.734;8.490;2022-08-01T16:43:42;0.80;;;0.60;;
45466;SDS011;31212;49.734;8.490;2022-08-01T16:46:08;2.15;;;0.52;;
45466;SDS011;31212;49.734;8.490;2022-08-01T16:48:35;0.50;;;0.50;;
45466;SDS011;31212;49.734;8.490;2022-08-01T16:51:01;0.85;;;0.68;;
45466;SDS011;31212;49.734;8.490;2022-08-01T16:53:28;1.90;;;0.60;;
45466;SDS011;31212;49.734;8.490;2022-08-01T16:55:55;0.70;;;0.38;;
45466;SDS011;31212;49.734;8.490;2022-08-01T16:58:22;0.77;;;0.50;;
45466;SDS011;31212;49.734;8.490;2022-08-01T17:00:48;1.05;;;0.60;;
45466;SDS011;31212;49.734;8.490;2022-08-01T17:03:17;0.82;;;0.68;;
45466;SDS011;31212;49.734;8.490;2022-08-01T17:05:44;0.98;;;0.60;;
45466;SDS011;31212;49.734;8.490;2022-08-01T17:08:11;1.20;;;0.50;;
45466;SDS011;31212;49.734;8.490;2022-08-01T17:10:37;0.40;;;0.40;;
45466;SDS011;31212;49.734;8.490;2022-08-01T17:13:05;0.40;;;0.40;;
45466;SDS011;31212;49.734;8.490;2022-08-01T17:15:32;1.25;;;0.50;;
45466;SDS011;31212;49.734;8.490;2022-08-01T17:18:00;0.73;;;0.68;;
45466;SDS011;31212;49.734;8.490;2022-08-01T17:20:27;0.98;;;0.65;;
45466;SDS011;31212;49.734;8.490;2022-08-01T17:22:53;1.13;;;0.60;;
45466;SDS011;31212;49.734;8.490;2022-08-01T17:25:20;1.00;;;0.90;;
45466;SDS011;31212;49.734;8.490;2022-08-01T17:27:48;0.90;;;0.52;;
45466;SDS011;31212;49.734;8.490;2022-08-01T17:30:18;1.92;;;0.70;;
45466;SDS011;31212;49.734;8.490;2022-08-01T17:32:45;1.23;;;0.80;;
45466;SDS011;31212;49.734;8.490;2022-08-01T17:35:13;0.65;;;0.50;;
45466;SDS011;31212;49.734;8.490;2022-08-01T17:37:39;0.65;;;0.65;;
45466;SDS011;31212;49.734;8.490;2022-08-01T17:40:06;0.70;;;0.63;;
45466;SDS011;31212;49.734;8.490;2022-08-01T17:42:34;2.20;;;1.00;;
45466;SDS011;31212;49.734;8.490;2022-08-01T17:45:00;0.50;;;0.50;;
45466;SDS011;31212;49.734;8.490;2022-08-01T17:47:28;0.95;;;0.80;;
45466;SDS011;31212;49.734;8.490;2022-08-01T17:49:55;1.20;;;0.70;;
45466;SDS011;31212;49.734;8.490;2022-08-01T17:52:21;1.10;;;0.70;;
45466;SDS011;31212;49.734;8.490;2022-08-01T17:54:48;1.17;;;0.77;;
45466;SDS011;31212;49.734;8.490;2022-08-01T17:57:14;4.00;;;0.98;;
45466;SDS011;31212;49.734;8.490;2022-08-01T17:59:41;0.90;;;0.70;;
45466;SDS011;31212;49.734;8.490;2022-08-01T18:02:09;0.45;;;0.45;;
45466;SDS011;31212;49.734;8.490;2022-08-01T18:04:37;0.77;;;0.75;;
45466;SDS011;31212;49.734;8.490;2022-08-01T18:07:03;1.63;;;1.08;;
45466;SDS011;31212;49.734;8.490;2022-08-01T18:09:30;1.13;;;1.00;;
45466;SDS011;31212;49.734;8.490;2022-08-01T18:11:57;1.27;;;0.70;;
45466;SDS011;31212;49.734;8.490;2022-08-01T18:14:24;1.25;;;0.90;;
45466;SDS011;31212;49.734;8.490;2022-08-01T18:16:51;0.65;;;0.60;;
45466;SDS011;31212;49.734;8.490;2022-08-01T18:19:17;4.53;;;0.80;;
45466;SDS011;31212;49.734;8.490;2022-08-01T18:21:46;2.92;;;0.88;;
45466;SDS011;31212;49.734;8.490;2022-08-01T18:24:13;1.33;;;0.90;;
45466;SDS011;31212;49.734;8.490;2022-08-01T18:26:41;0.73;;;0.73;;
45466;SDS011;31212;49.734;8.490;2022-08-01T18:29:08;1.15;;;0.80;;
45466;SDS011;31212;49.734;8.490;2022-08-01T18:31:34;0.77;;;0.77;;
45466;SDS011;31212;49.734;8.490;2022-08-01T18:34:01;1.10;;;0.80;;
45466;SDS011;31212;49.734;8.490;2022-08-01T18:36:28;1.35;;;0.80;;
45466;SDS011;31212;49.734;8.490;2022-08-01T18:38:56;1.63;;;1.10;;
45466;SDS011;31212;49.734;8.490;2022-08-01T18:41:22;1.25;;;0.80;;
45466;SDS011;31212;49.734;8.490;2022-08-01T18:43:49;1.45;;;1.10;;
45466;SDS011;31212;49.734;8.490;2022-08-01T18:46:16;1.63;;;1.17;;
45466;SDS011;31212;49.734;8.490;2022-08-01T18:48:42;1.20;;;1.02;;
45466;SDS011;31212;49.734;8.490;2022-08-01T18:51:09;1.13;;;1.02;;
45466;SDS011;31212;49.734;8.490;2022-08-01T18:53:35;2.35;;;1.15;;
45466;SDS011;31212;49.734;8.490;2022-08-01T18:56:04;1.88;;;1.00;;
45466;SDS011;31212;49.734;8.490;2022-08-01T19:01:02;1.23;;;1.05;;
45466;SDS011;31212;49.734;8.490;2022-08-01T19:03:28;2.20;;;1.52;;
45466;SDS011;31212;49.734;8.490;2022-08-01T19:05:55;1.88;;;1.25;;
45466;SDS011;31212;49.734;8.490;2022-08-01T19:08:21;2.92;;;1.13;;
45466;SDS011;31212;49.734;8.490;2022-08-01T19:10:47;2.05;;;1.10;;
45466;SDS011;31212;49.734;8.490;2022-08-01T19:13:15;1.13;;;0.98;;
45466;SDS011;31212;49.734;8.490;2022-08-01T19:15:42;1.58;;;1.30;;
45466;SDS011;31212;49.734;8.490;2022-08-01T19:18:09;2.65;;;1.70;;
45466;SDS011;31212;49.734;8.490;2022-08-01T19:20:35;2.45;;;1.33;;
45466;SDS011;31212;49.734;8.490;2022-08-01T19:23:02;2.03;;;1.40;;